Time;durP1;ratioP1;P1;durP2;ratioP2;P2;SDS_P1;SDS_P2;PMS_P1;PMS_P2;Temp;Humidity;BMP_temperature;BMP_pressure;BME280_temperature;BME280_humidity;BME280_pressure;Samples;Min_cycle;Max_cycle;Signal;HPM_P1;HPM_P2
2021/09/28 00:00:15;;;;;;;15.88;7.88;;;;;;;;;;10428923;28;20075;-72
2021/09/28 00:05:18;;;;;;;16.92;7.00;;;;;;;;;;10442664;28;20079;-73
2021/09/28 00:10:22;;;;;;;19.50;7.60;;;;;;;;;;10436702;28;20152;-72
2021/09/28 00:15:25;;;;;;;17.00;8.13;;;;;;;;;;10445776;28;20052;-71
2021/09/28 00:20:29;;;;;;;16.73;7.27;;;;;;;;;;10442270;28;20478;-72
2021/09/28 00:25:33;;;;;;;20.30;7.80;;;;;;;;;;10444020;28;20529;-69
2021/09/28 00:30:36;;;;;;;17.15;7.13;;;;;;;;;;10441290;28;20037;-72
2021/09/28 00:35:39;;;;;;;16.30;7.87;;;;;;;;;;10442396;28;20100;-72
2021/09/28 00:40:43;;;;;;;15.20;6.93;;;;;;;;;;10437255;28;20126;-71
2021/09/28 00:45:46;;;;;;;17.00;7.65;;;;;;;;;;10439268;28;20145;-72
2021/09/28 00:50:50;;;;;;;17.43;7.77;;;;;;;;;;10414359;28;20045;-72
2021/09/28 00:55:54;;;;;;;18.92;7.95;;;;;;;;;;10407975;28;20056;-72
2021/09/28 01:01:01;;;;;;;16.38;6.93;;;;;;;;;;10445028;28;20127;-69
2021/09/28 01:06:04;;;;;;;15.80;7.60;;;;;;;;;;10436471;28;20049;-72
2021/09/28 01:11:08;;;;;;;22.00;8.57;;;;;;;;;;10442150;28;20537;-70
2021/09/28 01:16:12;;;;;;;15.95;7.32;;;;;;;;;;10434431;28;20322;-71
2021/09/28 01:21:17;;;;;;;16.27;7.43;;;;;;;;;;10440392;28;20052;-71
2021/09/28 01:26:28;;;;;;;10.85;5.22;;;;;;;;;;10448717;28;20144;-71
2021/09/28 01:31:32;;;;;;;15.73;6.87;;;;;;;;;;10446293;28;20041;-71
2021/09/28 01:36:36;;;;;;;13.40;6.78;;;;;;;;;;10424440;28;20102;-70
2021/09/28 01:41:41;;;;;;;14.93;6.70;;;;;;;;;;10408270;28;20117;-71
2021/09/28 01:46:45;;;;;;;15.10;7.00;;;;;;;;;;10420887;28;20040;-72
2021/09/28 01:51:49;;;;;;;15.30;6.75;;;;;;;;;;10436249;28;20064;-71
2021/09/28 01:56:51;;;;;;;15.77;6.18;;;;;;;;;;10442810;28;20065;-71
2021/09/28 02:01:54;;;;;;;10.90;5.93;;;;;;;;;;10440123;28;20177;-73
2021/09/28 02:06:59;;;;;;;14.07;6.38;;;;;;;;;;10439431;28;20102;-72
2021/09/28 02:12:02;;;;;;;13.88;6.15;;;;;;;;;;10435270;28;20060;-72
2021/09/28 02:17:05;;;;;;;14.67;6.33;;;;;;;;;;10441231;28;20043;-72
2021/09/28 02:22:09;;;;;;;13.73;6.75;;;;;;;;;;10432801;28;20087;-72
2021/09/28 02:27:12;;;;;;;12.57;6.15;;;;;;;;;;10434980;28;20429;-72
2021/09/28 02:32:15;;;;;;;13.13;6.13;;;;;;;;;;10439226;28;20167;-70
2021/09/28 02:37:19;;;;;;;14.63;6.77;;;;;;;;;;10433988;28;20437;-72
2021/09/28 02:42:22;;;;;;;14.15;6.70;;;;;;;;;;10438513;28;20052;-72
2021/09/28 02:47:25;;;;;;;14.38;6.88;;;;;;;;;;10440972;28;20033;-71
2021/09/28 02:52:29;;;;;;;13.23;6.20;;;;;;;;;;10435657;28;20440;-72
2021/09/28 02:57:32;;;;;;;17.67;7.07;;;;;;;;;;10444927;28;20040;-70
2021/09/28 03:02:35;;;;;;;13.60;6.33;;;;;;;;;;10444650;28;20073;-71
2021/09/28 03:07:40;;;;;;;12.50;5.65;;;;;;;;;;10448137;28;20215;-69
2021/09/28 03:12:42;;;;;;;16.88;6.10;;;;;;;;;;10443354;28;20040;-70
2021/09/28 03:17:45;;;;;;;14.23;6.27;;;;;;;;;;10445431;28;20043;-72
2021/09/28 03:22:49;;;;;;;15.00;6.27;;;;;;;;;;10448652;28;20040;-73
2021/09/28 03:27:52;;;;;;;12.07;6.40;;;;;;;;;;10443488;28;20076;-70
2021/09/28 03:32:55;;;;;;;16.03;6.70;;;;;;;;;;10448828;28;20044;-71
2021/09/28 03:37:59;;;;;;;16.60;6.03;;;;;;;;;;10447781;28;20107;-71
2021/09/28 03:43:04;;;;;;;13.60;6.28;;;;;;;;;;10445173;28;20033;-71
2021/09/28 03:48:07;;;;;;;12.68;6.35;;;;;;;;;;10436684;28;20076;-72
2021/09/28 03:53:11;;;;;;;11.60;5.05;;;;;;;;;;10443485;28;20492;-72
2021/09/28 03:58:15;;;;;;;14.25;6.65;;;;;;;;;;10434853;28;20466;-71
2021/09/28 04:03:18;;;;;;;15.82;6.75;;;;;;;;;;10441712;28;20110;-68
2021/09/28 04:08:22;;;;;;;15.07;6.97;;;;;;;;;;10440981;28;20445;-70
2021/09/28 04:13:26;;;;;;;17.67;6.97;;;;;;;;;;10444054;28;20497;-71
2021/09/28 04:18:29;;;;;;;13.35;6.28;;;;;;;;;;10440387;28;20111;-71
2021/09/28 04:23:33;;;;;;;10.80;4.93;;;;;;;;;;10428162;28;20521;-71
2021/09/28 04:28:36;;;;;;;19.90;7.65;;;;;;;;;;10416516;28;20051;-70
2021/09/28 04:33:39;;;;;;;22.20;8.67;;;;;;;;;;10443664;28;20155;-71
2021/09/28 04:38:43;;;;;;;14.23;6.20;;;;;;;;;;10435010;28;20061;-70
2021/09/28 04:43:47;;;;;;;19.38;8.75;;;;;;;;;;10438643;28;20144;-71
2021/09/28 04:48:50;;;;;;;19.98;8.10;;;;;;;;;;10398455;28;1158226;-72
2021/09/28 04:53:54;;;;;;;16.37;7.27;;;;;;;;;;10443174;28;20543;-69
2021/09/28 04:58:57;;;;;;;18.48;8.57;;;;;;;;;;10425699;28;20120;-70
2021/09/28 05:04:00;;;;;;;14.93;7.73;;;;;;;;;;10444509;28;20033;-70
2021/09/28 05:09:04;;;;;;;16.00;7.50;;;;;;;;;;10438447;28;20067;-70
2021/09/28 05:14:07;;;;;;;17.05;7.97;;;;;;;;;;10437859;28;20072;-69
2021/09/28 05:19:10;;;;;;;16.63;7.07;;;;;;;;;;10438637;28;20046;-69
2021/09/28 05:24:14;;;;;;;17.93;7.83;;;;;;;;;;10434314;28;20073;-69
2021/09/28 05:29:17;;;;;;;17.67;7.35;;;;;;;;;;10440250;28;20517;-70
2021/09/28 05:34:21;;;;;;;18.77;7.53;;;;;;;;;;10438086;28;20132;-69
2021/09/28 05:39:26;;;;;;;17.40;8.25;;;;;;;;;;10434423;28;20061;-70
2021/09/28 05:44:28;;;;;;;15.65;6.82;;;;;;;;;;10438628;28;20452;-70
2021/09/28 05:49:32;;;;;;;16.47;7.27;;;;;;;;;;10434777;28;20503;-70
2021/09/28 05:54:40;;;;;;;11.75;5.97;;;;;;;;;;10432393;28;20075;-70
2021/09/28 05:59:43;;;;;;;12.88;6.28;;;;;;;;;;10436806;28;20042;-75
2021/09/28 06:04:47;;;;;;;10.15;3.97;;;;;;;;;;10433503;28;20128;-74
2021/09/28 06:09:52;;;;;;;12.30;5.60;;;;;;;;;;10442219;28;20040;-74
2021/09/28 06:14:55;;;;;;;9.82;4.78;;;;;;;;;;10435865;28;20038;-75
2021/09/28 06:19:58;;;;;;;12.77;4.77;;;;;;;;;;10440666;28;20468;-74
2021/09/28 06:25:02;;;;;;;11.97;4.80;;;;;;;;;;10433610;28;20135;-75
2021/09/28 06:30:05;;;;;;;5.85;2.72;;;;;;;;;;10420674;28;20096;-74
2021/09/28 06:35:08;;;;;;;;;;;;;;;;;;10443056;28;20076;-74
2021/09/28 06:40:13;;;;;;;2.00;1.20;;;;;;;;;;10438122;28;20016;-75
2021/09/28 06:45:15;;;;;;;2.25;1.10;;;;;;;;;;10441553;28;20048;-75
2021/09/28 06:50:19;;;;;;;1.23;0.90;;;;;;;;;;10415008;28;20037;-75
2021/09/28 06:55:24;;;;;;;2.47;1.27;;;;;;;;;;10425578;28;20048;-71
2021/09/28 07:00:27;;;;;;;3.80;1.10;;;;;;;;;;10414791;28;20052;-72
2021/09/28 07:05:30;;;;;;;2.22;1.10;;;;;;;;;;10412027;28;20168;-71
2021/09/28 07:10:34;;;;;;;1.23;0.90;;;;;;;;;;10431055;28;20366;-70
2021/09/28 07:15:37;;;;;;;1.10;0.70;;;;;;;;;;10432463;28;20143;-70
2021/09/28 07:20:45;;;;;;;0.60;0.50;;;;;;;;;;10437492;28;20475;-71
2021/09/28 07:25:49;;;;;;;1.40;0.50;;;;;;;;;;10435143;28;20120;-70
2021/09/28 07:30:52;;;;;;;1.77;0.98;;;;;;;;;;10430092;28;20036;-70
2021/09/28 07:35:55;;;;;;;;;;;;;;;;;;10420229;28;20124;-72
2021/09/28 07:40:59;;;;;;;0.70;0.60;;;;;;;;;;10429037;28;19932;-70
2021/09/28 07:46:02;;;;;;;1.75;0.70;;;;;;;;;;10451126;28;20234;-68
2021/09/28 07:51:05;;;;;;;1.13;0.60;;;;;;;;;;10447557;28;20056;-70
2021/09/28 07:56:09;;;;;;;0.88;0.68;;;;;;;;;;10448587;28;20079;-71
2021/09/28 08:01:12;;;;;;;2.38;0.77;;;;;;;;;;10444460;28;20103;-70
2021/09/28 08:06:15;;;;;;;1.75;0.90;;;;;;;;;;10438365;28;20041;-71
2021/09/28 08:11:19;;;;;;;0.22;0.22;;;;;;;;;;10442228;28;20075;-71
2021/09/28 08:16:22;;;;;;;1.33;0.88;;;;;;;;;;10455959;28;20041;-72
2021/09/28 08:21:25;;;;;;;0.70;0.70;;;;;;;;;;10441422;28;20097;-69
2021/09/28 08:31:51;;;;;;;1.38;1.05;;;;;;;;;;10441262;28;20064;-72
2021/09/28 08:36:54;;;;;;;1.00;0.90;;;;;;;;;;10440596;28;20135;-71
2021/09/28 08:41:58;;;;;;;2.10;1.23;;;;;;;;;;10465088;28;20068;-70
2021/09/28 08:47:01;;;;;;;1.30;1.20;;;;;;;;;;10445976;28;20372;-70
2021/09/28 08:52:05;;;;;;;2.20;1.42;;;;;;;;;;10436457;28;20132;-69
2021/09/28 08:57:08;;;;;;;;;;;;;;;;;;10441115;28;20064;-70
2021/09/28 09:02:14;;;;;;;2.17;1.20;;;;;;;;;;10429670;28;19929;-71
2021/09/28 09:07:20;;;;;;;1.63;1.40;;;;;;;;;;10426684;28;20049;-71
2021/09/28 09:12:30;;;;;;;1.23;1.10;;;;;;;;;;10438342;28;20139;-70
2021/09/28 09:17:38;;;;;;;2.28;1.38;;;;;;;;;;10441661;28;20044;-69
2021/09/28 09:22:41;;;;;;;2.40;1.45;;;;;;;;;;10450033;28;20048;-70
2021/09/28 09:27:44;;;;;;;2.05;1.00;;;;;;;;;;10439187;28;20358;-68
2021/09/28 09:32:49;;;;;;;3.40;1.10;;;;;;;;;;10431470;28;20124;-70
2021/09/28 09:37:52;;;;;;;1.77;1.10;;;;;;;;;;10433919;28;20500;-70
2021/09/28 09:42:55;;;;;;;3.55;1.80;;;;;;;;;;10422201;28;20310;-70
2021/09/28 09:48:21;;;;;;;5.75;2.30;;;;;;;;;;10437031;28;20053;-69
2021/09/28 09:53:25;;;;;;;3.22;2.53;;;;;;;;;;10435864;28;20332;-71
2021/09/28 09:58:28;;;;;;;4.70;2.03;;;;;;;;;;10429851;28;20215;-70
2021/09/28 10:03:32;;;;;;;2.80;2.10;;;;;;;;;;10436804;28;20101;-72
2021/09/28 10:08:42;;;;;;;1.50;1.15;;;;;;;;;;10435487;28;20041;-68
2021/09/28 10:13:45;;;;;;;11.57;8.02;;;;;;;;;;10432388;28;20044;-70
2021/09/28 10:18:49;;;;;;;2.08;1.40;;;;;;;;;;10438568;28;20123;-70
2021/09/28 10:24:07;;;;;;;2.33;1.45;;;;;;;;;;10437424;28;20037;-70
2021/09/28 10:29:25;;;;;;;5.55;1.90;;;;;;;;;;10428153;28;20061;-70
2021/09/28 10:34:51;;;;;;;7.28;2.35;;;;;;;;;;10427759;28;20053;-70
2021/09/28 10:39:54;;;;;;;4.65;2.30;;;;;;;;;;10429430;28;20045;-69
2021/09/28 10:44:57;;;;;;;6.15;2.70;;;;;;;;;;10437277;28;20055;-69
2021/09/28 10:50:15;;;;;;;3.22;2.15;;;;;;;;;;10434201;28;20124;-71
2021/09/28 10:55:28;;;;;;;4.97;2.58;;;;;;;;;;10436730;28;20037;-70
2021/09/28 11:00:53;;;;;;;6.45;2.95;;;;;;;;;;10432050;28;20045;-72
2021/09/28 11:05:58;;;;;;;3.83;2.38;;;;;;;;;;10433668;28;21750;-69
2021/09/28 11:11:02;;;;;;;4.75;2.22;;;;;;;;;;10431536;28;20057;-71
2021/09/28 11:16:05;;;;;;;4.70;2.40;;;;;;;;;;10430584;28;20435;-70
2021/09/28 11:21:10;;;;;;;4.05;2.35;;;;;;;;;;10439268;28;20084;-70
2021/09/28 11:26:13;;;;;;;3.97;2.05;;;;;;;;;;10441873;28;20067;-69
2021/09/28 11:31:16;;;;;;;3.55;2.10;;;;;;;;;;10446463;28;20045;-69
2021/09/28 11:36:20;;;;;;;9.88;4.55;;;;;;;;;;10448501;28;20509;-70
2021/09/28 11:41:23;;;;;;;2.78;1.95;;;;;;;;;;10453109;28;20059;-69
2021/09/28 11:46:25;;;;;;;;;;;;;;;;;;10445822;28;20180;-70
2021/09/28 11:51:30;;;;;;;2.90;2.00;;;;;;;;;;10436815;28;20369;-69
2021/09/28 11:56:35;;;;;;;3.78;1.88;;;;;;;;;;10451994;28;20410;-70
2021/09/28 12:01:38;;;;;;;4.80;2.08;;;;;;;;;;10443589;28;20075;-70
2021/09/28 12:07:00;;;;;;;2.70;2.15;;;;;;;;;;10440306;28;20040;-68
2021/09/28 12:12:04;;;;;;;5.38;2.85;;;;;;;;;;10440680;28;20037;-69
2021/09/28 12:17:08;;;;;;;2.47;2.00;;;;;;;;;;10445537;28;20123;-69
2021/09/28 12:22:13;;;;;;;2.67;1.63;;;;;;;;;;10436240;28;20474;-69
2021/09/28 12:27:16;;;;;;;3.75;2.30;;;;;;;;;;10432053;28;20482;-68
2021/09/28 12:32:20;;;;;;;4.70;2.10;;;;;;;;;;10439372;28;20145;-70
2021/09/28 12:37:29;;;;;;;6.15;2.30;;;;;;;;;;10434628;28;20037;-69
2021/09/28 12:42:32;;;;;;;7.03;4.07;;;;;;;;;;10438700;28;20045;-71
2021/09/28 12:47:37;;;;;;;3.40;2.33;;;;;;;;;;10441437;28;20358;-72
2021/09/28 12:52:41;;;;;;;3.63;1.90;;;;;;;;;;10439293;28;20128;-71
2021/09/28 12:57:44;;;;;;;4.50;2.42;;;;;;;;;;10433305;28;20497;-72
2021/09/28 13:02:48;;;;;;;4.80;2.92;;;;;;;;;;10435718;28;20051;-74
2021/09/28 13:07:53;;;;;;;4.65;2.60;;;;;;;;;;10432216;28;20045;-73
2021/09/28 13:12:56;;;;;;;6.68;3.03;;;;;;;;;;10423851;28;20075;-73
2021/09/28 13:17:59;;;;;;;6.28;3.00;;;;;;;;;;10424218;28;20527;-73
2021/09/28 13:23:04;;;;;;;6.00;2.72;;;;;;;;;;10427155;28;20143;-73
2021/09/28 13:28:08;;;;;;;5.40;2.58;;;;;;;;;;10433393;28;20120;-73
2021/09/28 13:33:10;;;;;;;4.43;2.55;;;;;;;;;;10437211;28;20073;-74
2021/09/28 13:38:13;;;;;;;;;;;;;;;;;;10435718;28;20124;-73
2021/09/28 13:43:17;;;;;;;6.23;2.50;;;;;;;;;;10437495;28;20016;-74
2021/09/28 13:48:20;;;;;;;6.93;3.03;;;;;;;;;;10433158;28;20037;-74
2021/09/28 13:53:23;;;;;;;5.85;3.15;;;;;;;;;;10441413;28;20049;-74
2021/09/28 13:58:27;;;;;;;8.00;2.83;;;;;;;;;;10424882;28;20156;-72
2021/09/28 14:03:30;;;;;;;5.63;2.75;;;;;;;;;;10421169;28;20128;-74
2021/09/28 14:08:33;;;;;;;9.77;2.88;;;;;;;;;;10422575;28;20044;-74
2021/09/28 14:13:38;;;;;;;7.13;3.88;;;;;;;;;;10420247;28;20066;-71
2021/09/28 14:18:40;;;;;;;9.60;5.45;;;;;;;;;;10421305;28;20477;-72
2021/09/28 14:23:43;;;;;;;6.97;3.33;;;;;;;;;;10425153;28;20041;-72
2021/09/28 14:28:48;;;;;;;5.38;2.70;;;;;;;;;;10423529;28;20064;-72
2021/09/28 14:33:50;;;;;;;5.00;2.70;;;;;;;;;;10424719;28;20124;-72
2021/09/28 14:38:53;;;;;;;6.40;2.72;;;;;;;;;;10428271;28;20052;-73
2021/09/28 14:43:58;;;;;;;4.53;2.95;;;;;;;;;;10427756;28;20375;-71
2021/09/28 14:49:02;;;;;;;9.75;2.92;;;;;;;;;;10425629;28;20067;-72
2021/09/28 14:54:05;;;;;;;5.13;2.53;;;;;;;;;;10434886;28;20068;-73
2021/09/28 14:59:10;;;;;;;5.15;2.80;;;;;;;;;;10441230;28;20065;-73
2021/09/28 15:04:13;;;;;;;4.07;2.35;;;;;;;;;;10447980;28;20461;-73
2021/09/28 15:09:16;;;;;;;4.03;2.67;;;;;;;;;;10436778;28;20525;-71
2021/09/28 15:14:20;;;;;;;7.45;3.00;;;;;;;;;;10432354;28;20119;-72
2021/09/28 15:19:23;;;;;;;8.02;3.03;;;;;;;;;;10439772;28;20114;-74
2021/09/28 15:24:26;;;;;;;5.65;3.13;;;;;;;;;;10450518;28;20181;-72
2021/09/28 15:29:30;;;;;;;7.22;3.55;;;;;;;;;;10443856;28;20064;-74
2021/09/28 15:34:34;;;;;;;6.25;3.80;;;;;;;;;;10437295;28;20547;-72
2021/09/28 15:39:36;;;;;;;5.97;3.65;;;;;;;;;;10447169;28;20056;-73
2021/09/28 15:44:41;;;;;;;6.88;3.80;;;;;;;;;;10446612;28;20044;-73
2021/09/28 15:49:43;;;;;;;9.05;5.20;;;;;;;;;;10439244;28;20056;-71
2021/09/28 15:54:46;;;;;;;8.13;5.13;;;;;;;;;;10444242;28;20041;-73
2021/09/28 15:59:50;;;;;;;9.82;5.72;;;;;;;;;;10435112;28;20715;-71
2021/09/28 16:04:53;;;;;;;8.90;5.50;;;;;;;;;;10423376;28;20044;-73
2021/09/28 16:09:57;;;;;;;9.95;6.60;;;;;;;;;;10428919;28;20076;-74
2021/09/28 16:15:01;;;;;;;12.25;6.18;;;;;;;;;;10429643;28;20076;-71
2021/09/28 16:20:12;;;;;;;11.27;6.38;;;;;;;;;;10441365;28;20056;-74
2021/09/28 16:25:15;;;;;;;9.13;5.55;;;;;;;;;;10428929;28;20049;-72
2021/09/28 16:30:20;;;;;;;9.03;5.53;;;;;;;;;;10440993;28;20129;-74
2021/09/28 16:35:23;;;;;;;9.38;5.28;;;;;;;;;;10441242;28;20593;-75
2021/09/28 16:40:26;;;;;;;9.27;5.47;;;;;;;;;;10437275;28;20056;-71
2021/09/28 16:45:33;;;;;;;;;;;;;;;;;;10438683;28;20398;-72
2021/09/28 16:50:37;;;;;;;8.88;4.57;;;;;;;;;;10437217;28;19921;-70
2021/09/28 16:55:40;;;;;;;7.15;4.20;;;;;;;;;;10439950;28;20044;-70
2021/09/28 17:00:43;;;;;;;9.82;5.60;;;;;;;;;;10439203;28;20049;-71
2021/09/28 17:05:47;;;;;;;8.65;5.00;;;;;;;;;;10438605;28;20544;-70
2021/09/28 17:10:50;;;;;;;8.32;4.70;;;;;;;;;;10442936;28;20048;-70
2021/09/28 17:15:53;;;;;;;11.37;5.70;;;;;;;;;;10435056;28;20532;-70
2021/09/28 17:21:00;;;;;;;6.65;4.10;;;;;;;;;;10451936;28;20306;-72
2021/09/28 17:26:03;;;;;;;6.93;3.92;;;;;;;;;;10434647;28;20052;-72
2021/09/28 17:31:06;;;;;;;8.40;4.70;;;;;;;;;;10441262;28;20493;-72
2021/09/28 17:36:10;;;;;;;12.97;4.57;;;;;;;;;;10437609;28;20460;-71
2021/09/28 17:41:13;;;;;;;9.80;5.32;;;;;;;;;;10435055;28;20064;-71
2021/09/28 17:46:16;;;;;;;8.25;4.13;;;;;;;;;;10441450;28;20041;-69
2021/09/28 17:51:20;;;;;;;15.13;6.18;;;;;;;;;;10434701;28;20214;-70
2021/09/28 17:56:39;;;;;;;13.25;6.03;;;;;;;;;;10443915;28;20064;-71
2021/09/28 18:01:45;;;;;;;9.02;4.72;;;;;;;;;;10438259;28;20494;-70
2021/09/28 18:06:50;;;;;;;9.13;5.25;;;;;;;;;;10441659;28;20095;-72
2021/09/28 18:11:52;;;;;;;7.82;4.50;;;;;;;;;;10437735;28;20405;-72
2021/09/28 18:16:55;;;;;;;10.17;4.60;;;;;;;;;;10435218;28;20103;-71
2021/09/28 18:22:01;;;;;;;9.73;4.70;;;;;;;;;;10438756;28;20866;-72
2021/09/28 18:27:04;;;;;;;11.00;5.93;;;;;;;;;;10435220;28;20393;-72
2021/09/28 18:32:09;;;;;;;14.00;6.97;;;;;;;;;;10432273;28;20453;-71
2021/09/28 18:37:23;;;;;;;27.40;13.52;;;;;;;;;;10438128;28;20110;-72
2021/09/28 18:42:29;;;;;;;9.93;5.72;;;;;;;;;;10440747;28;20115;-71
2021/09/28 18:47:32;;;;;;;9.75;5.53;;;;;;;;;;10440591;28;20049;-71
2021/09/28 18:52:38;;;;;;;11.37;6.03;;;;;;;;;;10454830;28;20049;-71
2021/09/28 18:57:49;;;;;;;10.18;5.80;;;;;;;;;;10436859;28;20721;-71
2021/09/28 19:02:54;;;;;;;11.73;6.78;;;;;;;;;;10439156;28;20072;-72
2021/09/28 19:08:07;;;;;;;12.77;6.63;;;;;;;;;;10439849;28;20041;-72
2021/09/28 19:13:10;;;;;;;14.13;7.10;;;;;;;;;;10436763;28;20474;-72
2021/09/28 19:18:13;;;;;;;11.30;6.80;;;;;;;;;;10440777;28;20385;-71
2021/09/28 19:23:18;;;;;;;13.70;7.38;;;;;;;;;;10434548;28;20416;-71
2021/09/28 19:28:20;;;;;;;12.38;7.22;;;;;;;;;;10437610;28;20094;-73
2021/09/28 19:33:23;;;;;;;13.10;6.17;;;;;;;;;;10441618;28;20087;-71
2021/09/28 19:38:28;;;;;;;12.93;7.10;;;;;;;;;;10435593;28;20073;-71
2021/09/28 19:43:33;;;;;;;11.70;6.95;;;;;;;;;;10446481;28;20523;-72
2021/09/28 19:48:36;;;;;;;11.23;6.68;;;;;;;;;;10443229;28;20155;-71
2021/09/28 19:53:40;;;;;;;12.20;6.60;;;;;;;;;;10446643;28;20464;-71
2021/09/28 19:58:52;;;;;;;10.52;6.68;;;;;;;;;;10447661;28;20041;-67
2021/09/28 20:04:04;;;;;;;13.10;7.75;;;;;;;;;;10435142;28;20122;-66
2021/09/28 20:36:03;;;;;;;10.75;5.93;;;;;;;;;;10437368;28;20052;-67
2021/09/28 20:41:09;;;;;;;11.07;6.13;;;;;;;;;;10440561;28;20147;-67
2021/09/28 20:46:14;;;;;;;13.45;6.38;;;;;;;;;;10436160;28;20049;-68
2021/09/28 20:51:17;;;;;;;8.82;5.75;;;;;;;;;;10438622;28;20045;-67
2021/09/28 20:56:23;;;;;;;11.98;6.70;;;;;;;;;;10439514;28;20060;-68
2021/09/28 21:01:25;;;;;;;10.65;6.43;;;;;;;;;;10432480;28;20049;-67
2021/09/28 21:06:28;;;;;;;11.38;6.43;;;;;;;;;;10437578;28;20106;-68
2021/09/28 21:11:33;;;;;;;10.07;5.63;;;;;;;;;;10438566;28;20128;-68
2021/09/28 21:16:36;;;;;;;10.68;6.60;;;;;;;;;;10436691;28;20061;-68
2021/09/28 21:21:39;;;;;;;11.35;6.80;;;;;;;;;;10438176;28;20105;-68
2021/09/28 21:26:47;;;;;;;10.67;6.37;;;;;;;;;;10438224;28;20033;-70
2021/09/28 21:31:50;;;;;;;12.63;6.22;;;;;;;;;;10443704;28;20072;-70
2021/09/28 21:36:57;;;;;;;11.75;6.65;;;;;;;;;;10438756;28;20029;-70
2021/09/28 21:42:21;;;;;;;11.82;6.97;;;;;;;;;;10440863;28;20044;-69
2021/09/28 21:47:47;;;;;;;11.52;6.97;;;;;;;;;;10439678;28;20148;-70
2021/09/28 21:53:09;;;;;;;13.23;6.20;;;;;;;;;;10436552;28;20519;-71
2021/09/28 21:58:33;;;;;;;11.32;6.20;;;;;;;;;;10438152;28;20045;-72
2021/09/28 22:03:56;;;;;;;13.27;6.78;;;;;;;;;;10437261;28;20067;-71
2021/09/28 22:08:59;;;;;;;11.17;6.23;;;;;;;;;;10434129;28;20172;-70
2021/09/28 22:14:06;;;;;;;12.45;6.90;;;;;;;;;;10440063;28;20515;-70
2021/09/28 22:19:09;;;;;;;12.02;6.93;;;;;;;;;;10437226;28;20120;-68
2021/09/28 22:24:11;;;;;;;12.70;7.60;;;;;;;;;;10439294;28;20350;-70
2021/09/28 22:29:16;;;;;;;13.10;6.87;;;;;;;;;;10440876;28;20076;-69
2021/09/28 22:34:19;;;;;;;15.38;8.02;;;;;;;;;;10441179;28;20368;-70
2021/09/28 22:39:22;;;;;;;12.90;7.03;;;;;;;;;;10436512;28;20049;-70
2021/09/28 22:44:26;;;;;;;13.27;7.93;;;;;;;;;;10439843;28;20052;-69
2021/09/28 22:49:29;;;;;;;15.32;7.65;;;;;;;;;;10435092;28;20119;-67
2021/09/28 22:54:32;;;;;;;14.83;7.97;;;;;;;;;;10430852;28;20029;-70
2021/09/28 22:59:37;;;;;;;13.53;6.97;;;;;;;;;;10434542;28;20045;-70
2021/09/28 23:04:40;;;;;;;19.17;8.25;;;;;;;;;;10438311;28;20116;-70
2021/09/28 23:09:43;;;;;;;15.15;7.50;;;;;;;;;;10434108;28;20044;-68
2021/09/28 23:14:47;;;;;;;17.53;8.57;;;;;;;;;;10441887;28;20041;-72
2021/09/28 23:19:50;;;;;;;16.42;8.07;;;;;;;;;;10441969;28;20072;-68
2021/09/28 23:24:52;;;;;;;18.13;8.47;;;;;;;;;;10444774;28;20041;-69
2021/09/28 23:29:57;;;;;;;13.47;7.93;;;;;;;;;;10445355;28;20121;-69
2021/09/28 23:34:59;;;;;;;16.13;7.63;;;;;;;;;;10447677;28;20056;-72
2021/09/28 23:40:02;;;;;;;15.20;7.97;;;;;;;;;;10444001;28;20041;-68
2021/09/28 23:45:07;;;;;;;17.15;7.85;;;;;;;;;;10446793;28;20067;-70
2021/09/28 23:50:10;;;;;;;15.30;8.02;;;;;;;;;;10442207;28;20493;-70
2021/09/28 23:55:13;;;;;;;18.20;8.70;;;;;;;;;;10445647;28;20067;-70
